Time;durP1;ratioP1;P1;durP2;ratioP2;P2;SDS_P1;SDS_P2;PMS_P1;PMS_P2;Temp;Humidity;BMP_temperature;BMP_pressure;BME280_temperature;BME280_humidity;BME280_pressure;Samples;Min_cycle;Max_cycle;Signal;HPM_P1;HPM_P2
2022/03/19 00:01:13;;;;;;;;;;;;;;;;;;5118156;28;20363;-67
2022/03/19 00:03:39;;;;;;;;;;;;;;;;;;5117086;28;19908;-67
2022/03/19 00:06:05;;;;;;;;;;;;;;;;;;5116313;28;19968;-67
2022/03/19 00:08:31;;;;;;;;;;;;;;;;;;5118003;28;19908;-67
2022/03/19 00:10:59;;;;;;;;;;;;;;;;;;5116622;28;19908;-67
2022/03/19 00:13:25;;;;;;;;;;;;;;;;;;5117427;28;20010;-67
2022/03/19 00:15:51;;;;;;;;;;;;;;;;;;5118382;28;19946;-67
2022/03/19 00:18:17;;;;;;;;;;;;;;;;;;5116113;28;19914;-67
2022/03/19 00:20:43;;;;;;;;;;;;;;;;;;5116461;28;19912;-67
2022/03/19 00:23:09;;;;;;;;;;;;;;;;;;5116452;28;19917;-67
2022/03/19 00:25:35;;;;;;;;;;;;;;;;;;5116493;28;19919;-67
2022/03/19 00:28:01;;;;;;;;;;;;;;;;;;5116362;28;19908;-67
2022/03/19 00:30:27;;;;;;;;;;;;;;;;;;5117546;28;19915;-68
2022/03/19 00:32:53;;;;;;;;;;;;;;;;;;5116852;28;19923;-66
2022/03/19 00:35:19;;;;;;;;;;;;;;;;;;5117456;28;19998;-67
2022/03/19 00:37:46;;;;;;;;;;;;;;;;;;5116073;28;19998;-67
2022/03/19 00:40:12;;;;;;;;;;;;;;;;;;5117002;28;19907;-66
2022/03/19 00:42:38;;;;;;;;;;;;;;;;;;5117321;28;19915;-67
2022/03/19 00:45:04;;;;;;;;;;;;;;;;;;5117172;28;19908;-66
2022/03/19 00:47:30;;;;;;;;;;;;;;;;;;5115572;28;19908;-68
2022/03/19 00:49:56;;;;;;;;;;;;;;;;;;5117339;28;20405;-68
2022/03/19 00:52:22;;;;;;;;;;;;;;;;;;5117179;28;19916;-66
2022/03/19 00:54:48;;;;;;;;;;;;;;;;;;5116671;28;19912;-67
2022/03/19 00:57:14;;;;;;;;;;;;;;;;;;5117070;28;20380;-67
2022/03/19 00:59:40;;;;;;;;;;;;;;;;;;5116976;28;19914;-68
2022/03/19 01:02:06;;;;;;;;;;;;;;;;;;5116563;28;20283;-67
2022/03/19 01:04:32;;;;;;;;;;;;;;;;;;5116403;28;19907;-67
2022/03/19 01:06:58;;;;;;;;;;;;;;;;;;5116849;28;19915;-67
2022/03/19 01:09:24;;;;;;;;;;;;;;;;;;5116442;28;20283;-67
2022/03/19 01:11:50;;;;;;;;;;;;;;;;;;5115394;28;19907;-67
2022/03/19 01:14:16;;;;;;;;;;;;;;;;;;5116981;28;20291;-67
2022/03/19 01:16:42;;;;;;;;;;;;;;;;;;5116296;28;19908;-67
2022/03/19 01:19:08;;;;;;;;;;;;;;;;;;5115434;28;19907;-67
2022/03/19 01:21:35;;;;;;;;;;;;;;;;;;5116666;28;19914;-67
2022/03/19 01:24:01;;;;;;;;;;;;;;;;;;5115272;28;19908;-66
2022/03/19 01:26:27;;;;;;;;;;;;;;;;;;5115150;28;19915;-67
2022/03/19 01:28:53;;;;;;;;;;;;;;;;;;5116201;28;20034;-67
2022/03/19 01:31:21;;;;;;;;;;;;;;;;;;5115147;28;20367;-67
2022/03/19 01:33:47;;;;;;;;;;;;;;;;;;5116120;28;19989;-67
2022/03/19 01:36:13;;;;;;;;;;;;;;;;;;5114638;28;19924;-67
2022/03/19 01:38:39;;;;;;;;;;;;;;;;;;5114888;28;19908;-67
2022/03/19 01:41:05;;;;;;;;;;;;;;;;;;5114909;28;19908;-67
2022/03/19 01:43:31;;;;;;;;;;;;;;;;;;5114443;28;19924;-67
2022/03/19 01:45:57;;;;;;;;;;;;;;;;;;5114761;28;19961;-67
2022/03/19 01:48:25;;;;;;;;;;;;;;;;;;5114800;28;19938;-68
2022/03/19 01:50:51;;;;;;;;;;;;;;;;;;5114311;28;20256;-67
2022/03/19 01:53:17;;;;;;;;;;;;;;;;;;5114587;28;19922;-67
2022/03/19 01:55:43;;;;;;;;;;;;;;;;;;5115891;28;19955;-67
2022/03/19 01:58:09;;;;;;;;;;;;;;;;;;5115357;28;19907;-67
2022/03/19 02:00:35;;;;;;;;;;;;;;;;;;5114532;28;19908;-67
2022/03/19 02:03:01;;;;;;;;;;;;;;;;;;5115786;28;19992;-66
2022/03/19 02:05:27;;;;;;;;;;;;;;;;;;5115242;28;19995;-66
2022/03/19 02:07:53;;;;;;;;;;;;;;;;;;5116072;28;19957;-67
2022/03/19 02:10:19;;;;;;;;;;;;;;;;;;5114353;28;19907;-67
2022/03/19 02:12:45;;;;;;;;;;;;;;;;;;5115146;28;19930;-66
2022/03/19 02:15:11;;;;;;;;;;;;;;;;;;5114302;28;19998;-66
2022/03/19 02:17:37;;;;;;;;;;;;;;;;;;5114639;28;19930;-66
2022/03/19 02:20:03;;;;;;;;;;;;;;;;;;5115131;27;19919;-66
2022/03/19 02:22:29;;;;;;;;;;;;;;;;;;5115429;28;19908;-67
2022/03/19 02:27:40;;;;;;;;;;;;;;;;;;5115354;28;20329;-66
2022/03/19 02:30:06;;;;;;;;;;;;;;;;;;5113960;28;19908;-67
2022/03/19 02:32:31;;;;;;;;;;;;;;;;;;5114573;28;19955;-67
2022/03/19 02:34:57;;;;;;;;;;;;;;;;;;5115185;28;19908;-68
2022/03/19 02:37:23;;;;;;;;;;;;;;;;;;5115117;28;20397;-68
2022/03/19 02:39:49;;;;;;;;;;;;;;;;;;5114636;28;19908;-69
2022/03/19 02:42:15;;;;;;;;;;;;;;;;;;5115044;28;20387;-67
2022/03/19 02:44:41;;;;;;;;;;;;;;;;;;5114999;28;19907;-67
2022/03/19 02:47:07;;;;;;;;;;;;;;;;;;5114691;28;19908;-67
2022/03/19 02:49:33;;;;;;;;;;;;;;;;;;5113609;28;19911;-67
2022/03/19 02:51:59;;;;;;;;;;;;;;;;;;5115105;28;20387;-67
2022/03/19 02:54:25;;;;;;;;;;;;;;;;;;5114464;28;20030;-67
2022/03/19 02:56:51;;;;;;;;;;;;;;;;;;5114738;28;19915;-66
2022/03/19 02:59:17;;;;;;;;;;;;;;;;;;5113436;28;19908;-66
2022/03/19 03:01:43;;;;;;;;;;;;;;;;;;5114326;28;19912;-67
2022/03/19 03:04:09;;;;;;;;;;;;;;;;;;5113626;28;19990;-67
2022/03/19 03:06:36;;;;;;;;;;;;;;;;;;5114841;28;19908;-67
2022/03/19 03:09:02;;;;;;;;;;;;;;;;;;5114227;28;19946;-67
2022/03/19 03:11:28;;;;;;;;;;;;;;;;;;5114452;28;19908;-67
2022/03/19 03:13:54;;;;;;;;;;;;;;;;;;5113073;28;19955;-67
2022/03/19 03:16:20;;;;;;;;;;;;;;;;;;5114083;27;19908;-67
2022/03/19 03:18:46;;;;;;;;;;;;;;;;;;5113212;28;19912;-67
2022/03/19 03:21:12;;;;;;;;;;;;;;;;;;5114020;28;19908;-68
2022/03/19 03:23:38;;;;;;;;;;;;;;;;;;5114636;28;20269;-67
2022/03/19 03:26:04;;;;;;;;;;;;;;;;;;5113021;28;19908;-66
2022/03/19 03:28:30;;;;;;;;;;;;;;;;;;5113712;28;19908;-66
2022/03/19 03:30:56;;;;;;;;;;;;;;;;;;5114315;28;20279;-66
2022/03/19 03:33:22;;;;;;;;;;;;;;;;;;5112673;28;20390;-66
2022/03/19 03:35:48;;;;;;;;;;;;;;;;;;5113828;28;19908;-66
2022/03/19 03:38:14;;;;;;;;;;;;;;;;;;5114185;28;19908;-66
2022/03/19 03:40:41;;;;;;;;;;;;;;;;;;5112896;28;19915;-66
2022/03/19 03:43:07;;;;;;;;;;;;;;;;;;5112524;28;20256;-66
2022/03/19 03:45:33;;;;;;;;;;;;;;;;;;5112741;28;19908;-67
2022/03/19 03:47:59;;;;;;;;;;;;;;;;;;5114105;28;19915;-66
2022/03/19 03:50:25;;;;;;;;;;;;;;;;;;5113598;28;19915;-66
2022/03/19 03:52:51;;;;;;;;;;;;;;;;;;5114000;28;19916;-67
2022/03/19 03:55:17;;;;;;;;;;;;;;;;;;5114654;28;19952;-67
2022/03/19 03:57:43;;;;;;;;;;;;;;;;;;5113659;28;19908;-67
2022/03/19 04:00:10;;;;;;;;;;;;;;;;;;5114092;28;19915;-68
2022/03/19 04:02:36;;;;;;;;;;;;;;;;;;5114001;28;19915;-67
2022/03/19 04:05:02;;;;;;;;;;;;;;;;;;5113508;28;19922;-67
2022/03/19 04:07:28;;;;;;;;;;;;;;;;;;5113979;28;19908;-67
2022/03/19 04:09:54;;;;;;;;;;;;;;;;;;5112690;28;19908;-66
2022/03/19 04:12:21;;;;;;;;;;;;;;;;;;5112152;28;19912;-67
2022/03/19 04:14:47;;;;;;;;;;;;;;;;;;5114049;28;19912;-67
2022/03/19 04:17:13;;;;;;;;;;;;;;;;;;5114238;28;20352;-67
2022/03/19 04:19:39;;;;;;;;;;;;;;;;;;5113414;28;19998;-68
2022/03/19 04:22:05;;;;;;;;;;;;;;;;;;5114383;28;19960;-67
2022/03/19 04:24:31;;;;;;;;;;;;;;;;;;5113428;28;19912;-67
2022/03/19 04:26:57;;;;;;;;;;;;;;;;;;5113835;28;20352;-67
2022/03/19 04:29:23;;;;;;;;;;;;;;;;;;5113760;28;19912;-67
2022/03/19 04:31:49;;;;;;;;;;;;;;;;;;5113363;28;19960;-67
2022/03/19 04:34:15;;;;;;;;;;;;;;;;;;5113901;28;19923;-67
2022/03/19 04:36:41;;;;;;;;;;;;;;;;;;5113650;28;19965;-67
2022/03/19 04:39:07;;;;;;;;;;;;;;;;;;5111906;28;19933;-67
2022/03/19 04:41:33;;;;;;;;;;;;;;;;;;5117110;28;19912;-67
2022/03/19 04:43:59;;;;;;;;;;;;;;;;;;5117363;28;19969;-67
2022/03/19 04:46:25;;;;;;;;;;;;;;;;;;5117078;28;19908;-67
2022/03/19 04:48:52;;;;;;;;;;;;;;;;;;5115968;28;19930;-67
2022/03/19 04:51:18;;;;;;;;;;;;;;;;;;5117334;28;19994;-67
2022/03/19 04:53:49;;;;;;;;;;;;;;;;;;5116634;28;20007;-67
2022/03/19 04:56:15;;;;;;;;;;;;;;;;;;5117079;28;19935;-67
2022/03/19 04:58:41;;;;;;;;;;;;;;;;;;5117430;28;20383;-67
2022/03/19 05:01:07;;;;;;;;;;;;;;;;;;5116610;28;19907;-67
2022/03/19 05:03:33;;;;;;;;;;;;;;;;;;5116966;28;19911;-67
2022/03/19 05:05:59;;;;;;;;;;;;;;;;;;5115582;28;20421;-67
2022/03/19 05:08:24;;;;;;;;;;;;;;;;;;5116388;28;19908;-68
2022/03/19 05:13:35;;;;;;;;;;;;;;;;;;5116310;28;19923;-67
2022/03/19 05:16:01;;;;;;;;;;;;;;;;;;5115630;28;19950;-67
2022/03/19 05:18:27;;;;;;;;;;;;;;;;;;5116782;27;19908;-67
2022/03/19 05:20:53;;;;;;;;;;;;;;;;;;5116253;28;19936;-67
2022/03/19 05:23:19;;;;;;;;;;;;;;;;;;5116905;28;19908;-67
2022/03/19 05:25:45;;;;;;;;;;;;;;;;;;5115217;28;19914;-67
2022/03/19 05:28:11;;;;;;;;;;;;;;;;;;5114903;28;20321;-67
2022/03/19 05:30:37;;;;;;;;;;;;;;;;;;5116345;28;19912;-67
2022/03/19 05:33:03;;;;;;;;;;;;;;;;;;5116166;28;19924;-65
2022/03/19 05:35:29;;;;;;;;;;;;;;;;;;5116180;28;19969;-67
2022/03/19 05:37:55;;;;;;;;;;;;;;;;;;5116270;28;19954;-68
2022/03/19 05:40:21;;;;;;;;;;;;;;;;;;5116575;27;19947;-67
2022/03/19 05:42:47;;;;;;;;;;;;;;;;;;5115794;28;20253;-68
2022/03/19 05:45:15;;;;;;;;;;;;;;;;;;5116231;28;19915;-67
2022/03/19 05:47:41;;;;;;;;;;;;;;;;;;5116057;28;19995;-67
2022/03/19 05:50:07;;;;;;;;;;;;;;;;;;5115758;28;19969;-68
2022/03/19 05:52:33;;;;;;;;;;;;;;;;;;5115925;28;20372;-67
2022/03/19 05:54:59;;;;;;;;;;;;;;;;;;5114642;28;19938;-68
2022/03/19 05:57:25;;;;;;;;;;;;;;;;;;5114188;28;19991;-68
2022/03/19 05:59:51;;;;;;;;;;;;;;;;;;5115882;28;19914;-68
2022/03/19 06:02:17;;;;;;;;;;;;;;;;;;5115817;28;20270;-68
2022/03/19 06:04:43;;;;;;;;;;;;;;;;;;5115402;28;20006;-68
2022/03/19 06:07:09;;;;;;;;;;;;;;;;;;5115742;28;19908;-67
2022/03/19 06:09:35;;;;;;;;;;;;;;;;;;5115760;28;19911;-67
2022/03/19 06:12:01;;;;;;;;;;;;;;;;;;5113975;28;19915;-68
2022/03/19 06:14:27;;;;;;;;;;;;;;;;;;5115554;28;19912;-68
2022/03/19 06:16:53;;;;;;;;;;;;;;;;;;5115358;28;19911;-68
2022/03/19 06:19:19;;;;;;;;;;;;;;;;;;5114184;28;20283;-68
2022/03/19 06:21:45;;;;;;;;;;;;;;;;;;5114118;28;19971;-68
2022/03/19 06:24:11;;;;;;;;;;;;;;;;;;5115366;28;20003;-68
2022/03/19 06:26:37;;;;;;;;;;;;;;;;;;5115335;28;20355;-67
2022/03/19 06:29:03;;;;;;;;;;;;;;;;;;5115250;28;19912;-65
2022/03/19 06:31:29;;;;;;;;;;;;;;;;;;5114785;28;20378;-68
2022/03/19 06:33:55;;;;;;;;;;;;;;;;;;5113761;28;19922;-68
2022/03/19 06:39:06;;;;;;;;;;;;;;;;;;5114636;28;20283;-68
2022/03/19 06:41:32;;;;;;;;;;;;;;;;;;5113568;28;19908;-68
2022/03/19 06:43:58;;;;;;;;;;;;;;;;;;5115287;28;19915;-69
2022/03/19 06:46:24;;;;;;;;;;;;;;;;;;5113214;28;19908;-68
2022/03/19 06:48:50;;;;;;;;;;;;;;;;;;5113596;28;19991;-67
2022/03/19 06:51:16;;;;;;;;;;;;;;;;;;5114937;28;19953;-67
2022/03/19 06:53:42;;;;;;;;;;;;;;;;;;5114479;28;20371;-67
2022/03/19 06:56:08;;;;;;;;;;;;;;;;;;5114841;28;19939;-67
2022/03/19 06:58:34;;;;;;;;;;;;;;;;;;5113489;28;19908;-67
2022/03/19 07:01:00;;;;;;;;;;;;;;;;;;5114297;28;19915;-68
2022/03/19 07:03:26;;;;;;;;;;;;;;;;;;5112926;28;19957;-67
2022/03/19 07:05:52;;;;;;;;;;;;;;;;;;5114947;28;19946;-67
2022/03/19 07:08:18;;;;;;;;;;;;;;;;;;5114217;28;19908;-67
2022/03/19 07:10:44;;;;;;;;;;;;;;;;;;5114616;28;19914;-67
2022/03/19 07:13:10;;;;;;;;;;;;;;;;;;5112823;28;20265;-67
2022/03/19 07:15:36;;;;;;;;;;;;;;;;;;5114496;28;19943;-67
2022/03/19 07:18:02;;;;;;;;;;;;;;;;;;5114365;28;19960;-67
2022/03/19 07:20:28;;;;;;;;;;;;;;;;;;5112704;28;20251;-67
2022/03/19 07:22:54;;;;;;;;;;;;;;;;;;5114346;28;20355;-67
2022/03/19 07:25:20;;;;;;;;;;;;;;;;;;5113096;28;19908;-67
2022/03/19 07:27:46;;;;;;;;;;;;;;;;;;5112554;28;20283;-67
2022/03/19 07:30:12;;;;;;;;;;;;;;;;;;5112874;28;19955;-67
2022/03/19 07:32:38;;;;;;;;;;;;;;;;;;5113928;28;20409;-67
2022/03/19 07:35:04;;;;;;;;;;;;;;;;;;5112527;28;19908;-68
2022/03/19 07:37:30;;;;;;;;;;;;;;;;;;5112918;28;19908;-68
2022/03/19 07:39:56;;;;;;;;;;;;;;;;;;5112912;28;19953;-68
2022/03/19 07:42:22;;;;;;;;;;;;;;;;;;5112441;28;19995;-68
2022/03/19 07:44:48;;;;;;;;;;;;;;;;;;5114313;28;20003;-68
2022/03/19 07:47:14;;;;;;;;;;;;;;;;;;5114107;28;19908;-67
2022/03/19 07:49:40;;;;;;;;;;;;;;;;;;5113865;28;19907;-68
2022/03/19 07:52:06;;;;;;;;;;;;;;;;;;5114089;28;20370;-68
2022/03/19 07:54:32;;;;;;;;;;;;;;;;;;5114065;28;19969;-68
2022/03/19 07:56:58;;;;;;;;;;;;;;;;;;5112321;28;19999;-68
2022/03/19 07:59:25;;;;;;;;;;;;;;;;;;5113946;28;19907;-68
2022/03/19 08:01:51;;;;;;;;;;;;;;;;;;5114581;28;19908;-68
2022/03/19 08:04:16;;;;;;;;;;;;;;;;;;5113490;28;19907;-68
2022/03/19 08:06:42;;;;;;;;;;;;;;;;;;5112599;28;20026;-67
2022/03/19 08:09:08;;;;;;;;;;;;;;;;;;5112578;28;20356;-67
2022/03/19 08:11:34;;;;;;;;;;;;;;;;;;5113465;28;19923;-68
2022/03/19 08:14:01;;;;;;;;;;;;;;;;;;5114040;28;19981;-68
2022/03/19 08:16:27;;;;;;;;;;;;;;;;;;5117034;28;20403;-68
2022/03/19 08:18:53;;;;;;;;;;;;;;;;;;5117784;28;19918;-68
2022/03/19 08:21:19;;;;;;;;;;;;;;;;;;5117754;28;19911;-68
2022/03/19 08:23:47;;;;;;;;;;;;;;;;;;5116109;28;19916;-68
2022/03/19 08:26:13;;;;;;;;;;;;;;;;;;5116366;28;19986;-68
2022/03/19 08:28:38;;;;;;;;;;;;;;;;;;5116629;28;19958;-68
2022/03/19 08:31:04;;;;;;;;;;;;;;;;;;5117174;28;19912;-68
2022/03/19 08:33:30;;;;;;;;;;;;;;;;;;5117317;28;19924;-68
2022/03/19 08:35:56;;;;;;;;;;;;;;;;;;5116156;28;20320;-68
2022/03/19 08:41:07;;;;;;;;;;;;;;;;;;5117440;28;19961;-68
2022/03/19 08:43:33;;;;;;;;;;;;;;;;;;5116405;28;19998;-68
2022/03/19 08:45:59;;;;;;;;;;;;;;;;;;5115606;28;20465;-68
2022/03/19 08:48:25;;;;;;;;;;;;;;;;;;5117260;28;19907;-68
2022/03/19 08:50:51;;;;;;;;;;;;;;;;;;5117365;28;20006;-68
2022/03/19 08:53:17;;;;;;;;;;;;;;;;;;5116799;28;19916;-69
2022/03/19 08:55:45;;;;;;;;;;;;;;;;;;5117727;28;20373;-67
2022/03/19 08:58:13;;;;;;;;;;;;;;;;;;5116975;28;20264;-69
2022/03/19 09:00:40;;;;;;;;;;;;;;;;;;5116555;28;19915;-68
2022/03/19 09:03:06;;;;;;;;;;;;;;;;;;5116905;28;19908;-68
2022/03/19 09:05:32;;;;;;;;;;;;;;;;;;5116858;28;19908;-68
2022/03/19 09:07:58;;;;;;;;;;;;;;;;;;5116385;28;19961;-67
2022/03/19 09:10:24;;;;;;;;;;;;;;;;;;5116734;27;19995;-67
2022/03/19 09:12:50;;;;;;;;;;;;;;;;;;5116258;28;20006;-67
2022/03/19 09:15:16;;;;;;;;;;;;;;;;;;5116743;28;19961;-68
2022/03/19 09:17:42;;;;;;;;;;;;;;;;;;5116734;27;20386;-68
2022/03/19 09:20:10;;;;;;;;;;;;;;;;;;5115032;28;20287;-67
2022/03/19 09:22:36;;;;;;;;;;;;;;;;;;5116665;28;19908;-67
2022/03/19 09:25:02;;;;;;;;;;;;;;;;;;5115306;28;19908;-67
2022/03/19 09:27:28;;;;;;;;;;;;;;;;;;5115767;28;20493;-67
2022/03/19 09:29:54;;;;;;;;;;;;;;;;;;5116569;28;19907;-67
2022/03/19 09:32:20;;;;;;;;;;;;;;;;;;5114998;28;19915;-67
2022/03/19 09:34:49;;;;;;;;;;;;;;;;;;5116000;28;20379;-67
2022/03/19 09:37:15;;;;;;;;;;;;;;;;;;5116259;28;20386;-67
2022/03/19 09:39:41;;;;;;;;;;;;;;;;;;5116491;28;19987;-68
2022/03/19 09:42:07;;;;;;;;;;;;;;;;;;5114654;28;20355;-67
2022/03/19 09:44:33;;;;;;;;;;;;;;;;;;5116674;28;20028;-68
2022/03/19 09:46:59;;;;;;;;;;;;;;;;;;5116050;28;19907;-68
2022/03/19 09:49:25;;;;;;;;;;;;;;;;;;5115721;28;20325;-68
2022/03/19 09:51:52;;;;;;;;;;;;;;;;;;5116138;28;19907;-68
2022/03/19 09:54:18;;;;;;;;;;;;;;;;;;5115858;28;20379;-67
2022/03/19 09:56:44;;;;;;;;;;;;;;;;;;5115469;28;19908;-67
2022/03/19 09:59:09;;;;;;;;;;;;;;;;;;5115844;27;19912;-67
2022/03/19 10:01:35;;;;;;;;;;;;;;;;;;5115759;28;19960;-67
2022/03/19 10:04:01;;;;;;;;;;;;;;;;;;5115335;28;20352;-67
2022/03/19 10:09:12;;;;;;;;;;;;;;;;;;5115265;28;20379;-68
2022/03/19 10:11:38;;;;;;;;;;;;;;;;;;5115549;28;19908;-67
2022/03/19 10:15:46;;;;;;;;;;;;;;;;;;5111988;27;19926;-69
2022/03/19 10:18:12;;;;;;;;;;;;;;;;;;5111166;28;20003;-69
2022/03/19 10:21:17;;;;;;;;;;;;;;;;;;5112126;27;19922;-67
2022/03/19 10:24:07;;;;;;;;;;;;;;;;;;5111737;27;19912;-68
2022/03/19 10:26:34;;;;;;;;;;;;;;;;;;5110353;28;19951;-67
2022/03/19 10:29:00;;;;;;;;;;;;;;;;;;5111855;28;19909;-69
2022/03/19 10:31:26;;;;;;;;;;;;;;;;;;5111130;28;19977;-68
2022/03/19 10:33:52;;;;;;;;;;;;;;;;;;5110282;28;20376;-68
2022/03/19 10:38:22;;;;;;;;;;;;;;;;;;5091464;27;19923;-68
2022/03/19 10:42:37;;;;;;;;;;;;;;;;;;5091718;27;19923;-67
2022/03/19 10:45:03;;;;;;;;;;;;;;;;;;5089803;28;20380;-68
2022/03/19 10:47:29;;;;;;;;;;;;;;;;;;5091891;28;19915;-68
2022/03/19 10:50:37;;;;;;;;;;;;;;;;;;5071719;28;19917;-67
2022/03/19 10:53:03;;;;;;;;;;;;;;;;;;5070754;28;20432;-68
2022/03/19 10:57:11;;;;;;;;;;;;;;;;;;5091783;27;19912;-68
2022/03/19 11:01:32;;;;;;;;;;;;;;;;;;5111715;27;19923;-66
2022/03/19 11:03:58;;;;;;;;;;;;;;;;;;5110318;28;19951;-69
2022/03/19 11:08:22;;;;;;;;;;;;;;;;;;5092248;27;19923;-67
2022/03/19 11:10:48;;;;;;;;;;;;;;;;;;5091450;28;19912;-68
2022/03/19 11:13:16;;;;;;;;;;;;;;;;;;5091141;28;20003;-68
2022/03/19 11:15:42;;;;;;;;;;;;;;;;;;5089965;28;19913;-66
2022/03/19 11:18:08;;;;;;;;;;;;;;;;;;5091217;28;19916;-68
2022/03/19 11:22:02;;;;;;;10.77;5.68;;;;;;;;;;5111488;27;20397;-67
2022/03/19 11:24:32;;;;;;;8.27;4.13;;;;;;;;;;5111445;28;20024;-68
2022/03/19 11:26:59;;;;;;;11.95;6.63;;;;;;;;;;5110746;28;20027;-67
2022/03/19 11:29:27;;;;;;;10.45;5.57;;;;;;;;;;5127148;28;20379;-68
2022/03/19 11:35:30;;;;;;;9.40;5.25;;;;;;;;;;5111060;27;20416;-68
2022/03/19 11:38:00;;;;;;;9.70;5.22;;;;;;;;;;5111304;28;20035;-66
2022/03/19 11:40:36;;;;;;;13.50;6.88;;;;;;;;;;5109967;28;20023;-67
2022/03/19 11:43:07;;;;;;;11.88;5.88;;;;;;;;;;5111341;28;20027;-67
2022/03/19 11:45:54;;;;;;;10.50;6.22;;;;;;;;;;5111052;28;20030;-67
2022/03/19 11:50:31;;;;;;;9.02;4.78;;;;;;;;;;5111971;27;20521;-67
2022/03/19 11:52:57;;;;;;;8.95;4.95;;;;;;;;;;5111198;28;20107;-67
2022/03/19 11:55:24;;;;;;;10.98;5.35;;;;;;;;;;5109414;28;20028;-66
2022/03/19 11:58:26;;;;;;;9.55;5.05;;;;;;;;;;5111321;27;20416;-67
2022/03/19 12:06:54;;;;;;;11.73;6.28;;;;;;;;;;5111397;27;20905;-66
2022/03/19 12:09:21;;;;;;;7.78;4.72;;;;;;;;;;5109537;28;20110;-68
2022/03/19 12:12:06;;;;;;;10.50;5.75;;;;;;;;;;5111662;28;20403;-68
2022/03/19 12:18:41;;;;;;;9.93;5.20;;;;;;;;;;5111772;27;20393;-67
2022/03/19 12:21:11;;;;;;;9.27;4.78;;;;;;;;;;5110173;28;20031;-68
2022/03/19 12:23:56;;;;;;;11.43;5.65;;;;;;;;;;5110809;28;20020;-68
2022/03/19 12:26:23;;;;;;;15.20;8.55;;;;;;;;;;5111388;28;20101;-68
2022/03/19 12:29:15;;;;;;;10.27;5.72;;;;;;;;;;5111158;28;20028;-68
2022/03/19 12:31:44;;;;;;;7.97;4.25;;;;;;;;;;5106138;28;20112;-68
2022/03/19 12:37:26;;;;;;;9.52;4.95;;;;;;;;;;5110940;27;20836;-67
2022/03/19 12:42:30;;;;;;;10.85;4.65;;;;;;;;;;5110877;27;20912;-67
2022/03/19 12:44:59;;;;;;;12.48;7.18;;;;;;;;;;5092514;28;20032;-68
2022/03/19 12:47:26;;;;;;;8.65;4.82;;;;;;;;;;5111158;28;20051;-67
2022/03/19 12:49:52;;;;;;;8.43;5.30;;;;;;;;;;5092778;28;20074;-67
2022/03/19 12:52:19;;;;;;;8.18;4.95;;;;;;;;;;5092338;28;20045;-68
2022/03/19 12:54:46;;;;;;;12.50;6.80;;;;;;;;;;5092871;28;20449;-68
2022/03/19 12:59:27;;;;;;;8.02;4.78;;;;;;;;;;5111169;27;20513;-67
2022/03/19 13:01:55;;;;;;;10.38;5.63;;;;;;;;;;5111022;28;20038;-66
2022/03/19 13:04:26;;;;;;;8.20;4.53;;;;;;;;;;5111143;28;20066;-67
2022/03/19 13:08:08;;;;;;;8.00;4.10;;;;;;;;;;5111208;27;20462;-67
2022/03/19 13:10:41;;;;;;;9.38;4.50;;;;;;;;;;5111413;28;20051;-68
2022/03/19 13:13:33;;;;;;;8.85;4.43;;;;;;;;;;5070340;28;20856;-68
2022/03/19 13:16:00;;;;;;;11.10;5.05;;;;;;;;;;5052654;28;20432;-68
2022/03/19 13:18:29;;;;;;;13.10;7.38;;;;;;;;;;5070833;28;20025;-67
2022/03/19 13:21:00;;;;;;;15.10;8.20;;;;;;;;;;5052161;28;20079;-68
2022/03/19 13:24:45;;;;;;;14.27;8.77;;;;;;;;;;5111838;27;20518;-68
2022/03/19 13:27:14;;;;;;;9.90;5.35;;;;;;;;;;5110953;28;20038;-68
2022/03/19 13:31:00;;;;;;;25.63;9.65;;;;;;;;;;5111668;27;20393;-68
2022/03/19 13:33:31;;;;;;;28.25;10.02;;;;;;;;;;5110745;28;20452;-69
2022/03/19 13:37:08;;;;;;;12.80;7.57;;;;;;;;;;5111784;27;20416;-66
2022/03/19 13:41:41;;;;;;;11.30;5.82;;;;;;;;;;5111118;27;20401;-69
2022/03/19 13:45:17;;;;;;;13.82;7.70;;;;;;;;;;5111901;27;20404;-67
2022/03/19 13:49:40;;;;;;;10.52;5.70;;;;;;;;;;5111357;27;20419;-66
2022/03/19 13:55:33;;;;;;;15.70;8.43;;;;;;;;;;5111122;27;20532;-69
2022/03/19 13:58:00;;;;;;;21.58;12.75;;;;;;;;;;5111451;28;20034;-68
2022/03/19 14:00:37;;;;;;;20.67;11.18;;;;;;;;;;5111244;28;20114;-67
2022/03/19 14:04:52;;;;;;;26.13;13.40;;;;;;;;;;5111485;27;20408;-67
2022/03/19 14:07:31;;;;;;;18.02;9.88;;;;;;;;;;5111397;28;20038;-67
2022/03/19 14:09:59;;;;;;;23.75;11.40;;;;;;;;;;5126690;28;20028;-67
2022/03/19 14:13:18;;;;;;;10.65;6.18;;;;;;;;;;5111614;27;20392;-67
2022/03/19 14:16:26;;;;;;;11.93;6.38;;;;;;;;;;5111187;27;20462;-67
2022/03/19 14:18:58;;;;;;;11.02;6.13;;;;;;;;;;5109951;28;20031;-67
2022/03/19 14:21:24;;;;;;;10.25;5.75;;;;;;;;;;5111289;28;20024;-67
2022/03/19 14:26:26;;;;;;;17.63;8.48;;;;;;;;;;5112011;27;20373;-66
2022/03/19 14:28:53;;;;;;;11.88;6.70;;;;;;;;;;5109850;28;20396;-66
2022/03/19 14:31:20;;;;;;;14.18;7.63;;;;;;;;;;5109353;28;20032;-68
2022/03/19 14:33:46;;;;;;;11.65;6.05;;;;;;;;;;5111060;28;20031;-68
2022/03/19 14:36:13;;;;;;;9.40;5.75;;;;;;;;;;5109631;28;20028;-67
2022/03/19 14:38:42;;;;;;;11.38;6.43;;;;;;;;;;5110972;28;20091;-67
2022/03/19 14:42:48;;;;;;;8.35;5.45;;;;;;;;;;5111564;27;20416;-68
2022/03/19 14:45:14;;;;;;;10.65;5.70;;;;;;;;;;5110928;28;20031;-68
2022/03/19 14:47:40;;;;;;;15.05;6.43;;;;;;;;;;5111514;28;20448;-66
2022/03/19 14:50:06;;;;;;;13.35;7.70;;;;;;;;;;5126969;28;20052;-67
2022/03/19 14:52:32;;;;;;;10.38;5.72;;;;;;;;;;5110670;28;20024;-69
2022/03/19 14:54:59;;;;;;;6.65;3.90;;;;;;;;;;5111024;28;20028;-68
2022/03/19 14:57:25;;;;;;;7.80;4.25;;;;;;;;;;5111015;28;20058;-68
2022/03/19 14:59:52;;;;;;;8.05;4.07;;;;;;;;;;5126184;28;20028;-68
2022/03/19 15:02:18;;;;;;;10.20;5.90;;;;;;;;;;5126459;28;20385;-68
2022/03/19 15:04:44;;;;;;;14.15;8.15;;;;;;;;;;5110515;28;20050;-67
2022/03/19 15:07:10;;;;;;;18.10;9.27;;;;;;;;;;5126638;28;20479;-68
2022/03/19 15:10:51;;;;;;;11.20;5.15;;;;;;;;;;5111360;27;20396;-67
2022/03/19 15:13:24;;;;;;;7.20;4.38;;;;;;;;;;5110826;28;20020;-67
2022/03/19 15:15:57;;;;;;;13.40;4.63;;;;;;;;;;5111589;28;20019;-67
2022/03/19 15:18:27;;;;;;;7.70;4.15;;;;;;;;;;5111561;28;20027;-67
2022/03/19 15:20:53;;;;;;;8.52;4.22;;;;;;;;;;5110602;28;20380;-67
2022/03/19 15:25:25;;;;;;;8.70;4.57;;;;;;;;;;5111590;27;20384;-68
2022/03/19 15:27:52;;;;;;;8.02;4.47;;;;;;;;;;5110820;28;20024;-67
2022/03/19 15:30:33;;;;;;;7.10;4.40;;;;;;;;;;5111872;27;21029;-67
2022/03/19 15:32:59;;;;;;;7.68;4.68;;;;;;;;;;5110837;28;20031;-67
2022/03/19 15:35:27;;;;;;;8.95;4.45;;;;;;;;;;5111126;28;20555;-67
2022/03/19 15:37:53;;;;;;;9.85;4.75;;;;;;;;;;5111104;28;20107;-67
2022/03/19 15:40:19;;;;;;;8.95;4.85;;;;;;;;;;5110542;28;20020;-67
2022/03/19 15:43:28;;;;;;;10.15;4.85;;;;;;;;;;5111577;27;20457;-68
2022/03/19 15:46:45;;;;;;;8.98;4.70;;;;;;;;;;5050459;28;20425;-68
2022/03/19 15:49:11;;;;;;;9.70;4.68;;;;;;;;;;5050746;28;20021;-68
2022/03/19 15:51:37;;;;;;;8.55;4.80;;;;;;;;;;5050798;28;20023;-67
2022/03/19 15:54:04;;;;;;;9.27;4.38;;;;;;;;;;5050521;28;20031;-66
2022/03/19 15:56:30;;;;;;;10.73;5.80;;;;;;;;;;5050530;28;20050;-68
2022/03/19 16:00:41;;;;;;;14.68;9.90;;;;;;;;;;5111779;27;20911;-68
2022/03/19 16:03:08;;;;;;;8.55;4.75;;;;;;;;;;5109576;28;20487;-68
2022/03/19 16:07:11;;;;;;;9.38;5.28;;;;;;;;;;5111727;27;21032;-67
2022/03/19 16:12:47;;;;;;;11.40;5.20;;;;;;;;;;5111883;27;20401;-67
2022/03/19 16:15:26;;;;;;;10.55;5.43;;;;;;;;;;5111467;27;20384;-67
2022/03/19 16:18:17;;;;;;;8.40;4.65;;;;;;;;;;5112035;27;20380;-67
2022/03/19 16:20:43;;;;;;;8.18;4.88;;;;;;;;;;5109891;28;20051;-67
2022/03/19 16:23:10;;;;;;;7.63;4.25;;;;;;;;;;5110768;28;20383;-67
2022/03/19 16:27:44;;;;;;;8.80;5.35;;;;;;;;;;5111993;27;20397;-68
2022/03/19 16:30:11;;;;;;;10.13;5.70;;;;;;;;;;5110857;28;20020;-68
2022/03/19 16:32:37;;;;;;;9.05;5.57;;;;;;;;;;5111117;28;20077;-68
2022/03/19 16:35:04;;;;;;;8.55;5.15;;;;;;;;;;5109869;28;20107;-67
2022/03/19 16:37:31;;;;;;;8.82;5.07;;;;;;;;;;5110820;28;20024;-70
2022/03/19 16:39:58;;;;;;;13.18;5.15;;;;;;;;;;5111048;28;20051;-66
2022/03/19 16:42:25;;;;;;;9.95;5.65;;;;;;;;;;5111032;28;20031;-68
2022/03/19 16:44:51;;;;;;;10.43;4.82;;;;;;;;;;5110570;28;20030;-68
2022/03/19 16:47:18;;;;;;;10.13;5.32;;;;;;;;;;5110964;28;20075;-69
2022/03/19 16:49:45;;;;;;;11.65;5.43;;;;;;;;;;5110824;28;20030;-68
2022/03/19 16:52:12;;;;;;;7.85;4.57;;;;;;;;;;5110437;28;20077;-68
2022/03/19 16:54:39;;;;;;;7.97;4.20;;;;;;;;;;5110800;28;20023;-68
2022/03/19 16:57:05;;;;;;;10.05;4.63;;;;;;;;;;5110679;28;20020;-68
2022/03/19 16:59:31;;;;;;;10.00;5.35;;;;;;;;;;5110619;28;20052;-68
2022/03/19 17:01:57;;;;;;;8.13;4.60;;;;;;;;;;5110606;28;20031;-68
2022/03/19 17:04:23;;;;;;;9.00;4.20;;;;;;;;;;5110211;28;20127;-68
2022/03/19 17:06:50;;;;;;;9.98;4.47;;;;;;;;;;5110942;28;20078;-68
2022/03/19 17:09:16;;;;;;;8.90;4.55;;;;;;;;;;5109248;28;20020;-67
2022/03/19 17:11:42;;;;;;;9.02;5.07;;;;;;;;;;5108679;28;20020;-67
2022/03/19 17:14:10;;;;;;;8.70;5.50;;;;;;;;;;5110434;28;20512;-67
2022/03/19 17:16:36;;;;;;;9.18;4.80;;;;;;;;;;5110303;28;20107;-67
2022/03/19 17:19:02;;;;;;;8.07;4.50;;;;;;;;;;5109947;28;20484;-67
2022/03/19 17:21:29;;;;;;;10.73;4.72;;;;;;;;;;5110271;28;20028;-67
2022/03/19 17:23:55;;;;;;;11.82;5.90;;;;;;;;;;5108954;28;20023;-68